createdAt,value
2022-08-07T00:01:44.219Z,77.90
2022-08-07T00:04:03.711Z,78.10
2022-08-07T00:06:33.341Z,78.40
2022-08-07T00:09:16.373Z,78.30
2022-08-07T00:11:54.077Z,78.50
2022-08-07T00:14:25.449Z,78.80
2022-08-07T00:16:52.634Z,79.00
2022-08-07T00:19:21.378Z,79.00
2022-08-07T00:21:55.946Z,79.10
2022-08-07T00:24:28.635Z,79.40
2022-08-07T00:27:07.353Z,79.50
2022-08-07T00:29:37.112Z,79.60
2022-08-07T00:32:05.783Z,79.80
2022-08-07T00:34:35.360Z,80.00
2022-08-07T00:37:05.099Z,80.00
2022-08-07T00:39:32.765Z,80.90
2022-08-07T00:42:02.444Z,80.00
2022-08-07T00:44:33.608Z,80.10
2022-08-07T00:47:01.741Z,80.30
2022-08-07T00:50:21.251Z,80.40
2022-08-07T00:52:19.920Z,80.50
2022-08-07T00:54:53.612Z,80.60
2022-08-07T00:57:25.977Z,80.80
2022-08-07T00:59:53.716Z,80.90
2022-08-07T01:02:28.430Z,81.20
2022-08-07T01:04:58.429Z,81.20
2022-08-07T01:07:27.608Z,81.40
2022-08-07T01:10:05.988Z,81.50
2022-08-07T01:12:38.127Z,81.50
2022-08-07T01:15:06.532Z,81.70
2022-08-07T01:17:39.939Z,81.80
2022-08-07T01:20:17.112Z,81.70
2022-08-07T01:22:46.934Z,81.80
2022-08-07T01:25:54.757Z,81.80
2022-08-07T01:28:15.529Z,81.80
2022-08-07T01:30:43.609Z,81.70
2022-08-07T01:33:11.784Z,81.80
2022-08-07T01:35:53.065Z,82.10
2022-08-07T01:38:24.627Z,82.30
2022-08-07T01:40:55.043Z,82.40
2022-08-07T01:43:23.639Z,82.50
2022-08-07T01:45:54.518Z,82.50
2022-08-07T01:48:29.868Z,82.60
2022-08-07T01:51:24.772Z,82.80
2022-08-07T01:54:12.031Z,82.80
2022-08-07T01:56:52.795Z,82.80
2022-08-07T01:59:36.022Z,83.10
2022-08-07T02:02:32.636Z,83.30
2022-08-07T02:05:47.566Z,84.30
2022-08-07T02:08:07.699Z,83.70
2022-08-07T02:10:37.587Z,83.80
2022-08-07T02:13:10.363Z,83.90
2022-08-07T02:15:39.855Z,84.00
2022-08-07T02:18:12.170Z,83.70
2022-08-07T02:20:42.167Z,83.70
2022-08-07T02:23:16.498Z,83.70
2022-08-07T02:26:30.926Z,84.00
2022-08-07T02:28:41.086Z,84.30
2022-08-07T02:31:18.720Z,84.20
2022-08-07T02:34:04.055Z,84.30
2022-08-07T02:36:41.301Z,84.30
2022-08-07T02:39:16.320Z,84.20
2022-08-07T02:41:47.257Z,84.40
2022-08-07T02:44:23.671Z,84.60
2022-08-07T02:46:56.190Z,84.80
2022-08-07T02:49:28.920Z,85.00
2022-08-07T02:52:17.187Z,85.20
2022-08-07T02:54:50.450Z,85.30
2022-08-07T02:57:22.878Z,85.50
2022-08-07T03:00:00.961Z,85.50
2022-08-07T03:02:28.416Z,85.60
2022-08-07T03:04:56.401Z,85.80
2022-08-07T03:07:42.964Z,85.80
2022-08-07T03:10:14.185Z,86.00
2022-08-07T03:12:42.139Z,86.30
2022-08-07T03:15:10.689Z,86.40
2022-08-07T03:17:53.460Z,86.40
2022-08-07T03:20:22.061Z,86.40
2022-08-07T03:22:50.543Z,86.60
2022-08-07T03:25:18.240Z,86.70
2022-08-07T03:28:09.222Z,87.10
2022-08-07T03:30:36.971Z,87.40
2022-08-07T03:33:05.053Z,87.50
2022-08-07T03:35:43.807Z,87.60
2022-08-07T03:38:21.498Z,87.50
2022-08-07T03:40:57.401Z,87.90
2022-08-07T03:43:26.609Z,88.00
2022-08-07T03:45:59.559Z,88.50
2022-08-07T03:48:29.781Z,88.70
2022-08-07T03:50:57.963Z,89.00
2022-08-07T03:53:30.315Z,89.10
2022-08-07T03:56:18.295Z,89.30
2022-08-07T03:59:09.636Z,89.30
2022-08-07T04:01:45.510Z,89.30
2022-08-07T04:04:17.278Z,89.60
2022-08-07T04:06:45.089Z,89.90
2022-08-07T04:09:15.700Z,90.00
2022-08-07T04:12:24.311Z,90.20
2022-08-07T04:14:38.401Z,90.10
2022-08-07T04:17:19.749Z,90.20
2022-08-07T04:19:58.177Z,90.30
2022-08-07T04:22:27.600Z,90.40
2022-08-07T04:25:01.608Z,90.50
2022-08-07T04:27:28.982Z,90.70
2022-08-07T04:30:10.220Z,90.80
2022-08-07T04:32:44.871Z,90.90
2022-08-07T04:35:14.933Z,90.90
2022-08-07T04:38:03.054Z,90.80
2022-08-07T04:40:30.165Z,90.80
2022-08-07T04:43:01.826Z,90.80
2022-08-07T04:45:57.639Z,90.80
2022-08-07T04:48:34.896Z,90.80
2022-08-07T04:51:05.528Z,90.90
2022-08-07T04:54:05.759Z,91.00
2022-08-07T04:58:07.741Z,90.90
2022-08-07T05:00:11.222Z,91.00
2022-08-07T05:02:39.575Z,91.10
2022-08-07T05:05:52.945Z,91.00
2022-08-07T05:08:14.429Z,91.10
2022-08-07T05:10:47.440Z,91.10
2022-08-07T05:14:56.531Z,91.30
2022-08-07T05:16:07.085Z,91.30
2022-08-07T05:18:40.979Z,91.30
2022-08-07T05:21:11.793Z,91.40
2022-08-07T05:23:57.251Z,91.50
2022-08-07T05:26:27.476Z,91.60
2022-08-07T05:28:59.107Z,91.50
2022-08-07T05:31:38.439Z,91.60
2022-08-07T05:34:12.146Z,91.70
2022-08-07T05:36:41.870Z,91.70
2022-08-07T05:40:13.722Z,91.80
2022-08-07T05:42:02.636Z,91.90
2022-08-07T05:44:35.014Z,91.90
2022-08-07T05:47:18.248Z,92.00
2022-08-07T05:49:49.524Z,92.10
2022-08-07T05:52:20.058Z,92.20
2022-08-07T05:54:55.903Z,92.30
2022-08-07T05:57:30.165Z,92.50
2022-08-07T06:00:01.742Z,92.60
2022-08-07T06:02:31.182Z,92.60
2022-08-07T06:05:04.648Z,92.60
2022-08-07T06:08:13.569Z,92.80
2022-08-07T06:10:21.612Z,92.80
2022-08-07T06:12:49.403Z,92.80
2022-08-07T06:15:20.082Z,92.90
2022-08-07T06:17:50.660Z,93.00
2022-08-07T06:20:25.366Z,92.90
2022-08-07T06:23:01.695Z,93.00
2022-08-07T06:25:36.830Z,93.00
2022-08-07T06:28:08.652Z,93.00
2022-08-07T06:30:38.038Z,93.00
2022-08-07T06:33:09.905Z,93.10
2022-08-07T06:35:47.653Z,93.50
2022-08-07T06:38:30.379Z,93.20
2022-08-07T06:40:59.792Z,93.30
2022-08-07T06:43:39.375Z,93.30
2022-08-07T06:46:11.613Z,93.20
2022-08-07T06:48:42.078Z,93.10
2022-08-07T06:51:15.561Z,93.10
2022-08-07T06:55:29.608Z,93.10
2022-08-07T06:56:50.860Z,93.20
2022-08-07T07:00:13.921Z,93.20
2022-08-07T07:02:48.351Z,93.50
2022-08-07T07:05:06.145Z,93.30
2022-08-07T07:07:59.148Z,93.30
2022-08-07T07:10:29.375Z,93.40
2022-08-07T07:13:06.288Z,93.40
2022-08-07T07:15:43.116Z,93.50
2022-08-07T07:18:47.295Z,93.60
2022-08-07T07:21:19.320Z,93.60
2022-08-07T07:24:09.390Z,94.00
2022-08-07T07:26:37.750Z,93.60
2022-08-07T07:29:39.031Z,93.70
2022-08-07T07:32:01.349Z,93.90
2022-08-07T07:34:31.933Z,94.00
2022-08-07T07:37:14.985Z,93.90
2022-08-07T07:39:55.230Z,94.10
2022-08-07T07:42:32.493Z,94.20
2022-08-07T07:45:05.652Z,94.20
2022-08-07T07:47:51.773Z,94.20
2022-08-07T07:50:36.670Z,94.00
2022-08-07T07:53:20.103Z,93.90
2022-08-07T07:55:57.919Z,93.90
2022-08-07T07:58:30.782Z,93.90
2022-08-07T08:01:05.738Z,93.80
2022-08-07T08:04:06.518Z,93.80
2022-08-07T08:06:50.690Z,93.70
2022-08-07T08:09:22.760Z,93.70
2022-08-07T08:12:01.609Z,93.70
2022-08-07T08:14:36.671Z,93.60
2022-08-07T08:17:55.433Z,93.70
2022-08-07T08:20:19.841Z,93.80
2022-08-07T08:23:08.348Z,93.70
2022-08-07T08:25:58.195Z,93.60
2022-08-07T08:28:38.732Z,93.70
2022-08-07T08:31:15.807Z,93.60
2022-08-07T08:33:49.837Z,93.50
2022-08-07T08:36:29.591Z,93.50
2022-08-07T08:39:00.003Z,91.50
2022-08-07T08:41:57.311Z,91.00
2022-08-07T08:44:29.534Z,90.20
2022-08-07T08:47:04.323Z,90.20
2022-08-07T08:50:05.538Z,90.20
2022-08-07T08:52:40.744Z,90.30
2022-08-07T08:55:54.436Z,90.50
2022-08-07T08:58:36.269Z,90.70
2022-08-07T09:01:16.138Z,89.70
2022-08-07T09:04:00.837Z,89.90
2022-08-07T09:06:53.371Z,89.50
2022-08-07T09:09:44.609Z,89.70
2022-08-07T09:12:32.359Z,89.00
2022-08-07T09:16:25.527Z,88.10
2022-08-07T09:18:42.503Z,88.20
2022-08-07T09:21:58.213Z,89.10
2022-08-07T09:24:59.791Z,90.10
2022-08-07T09:27:59.563Z,90.30
2022-08-07T09:30:54.892Z,90.50
2022-08-07T09:33:56.673Z,90.70
2022-08-07T09:36:35.424Z,90.50
2022-08-07T09:39:55.489Z,90.30
2022-08-07T09:42:17.289Z,90.10
2022-08-07T09:47:25.126Z,90.10
2022-08-07T09:48:56.080Z,90.10
2022-08-07T09:52:10.542Z,90.20
2022-08-07T09:55:29.426Z,90.20
2022-08-07T09:58:42.450Z,90.20
2022-08-07T10:01:52.185Z,90.20
2022-08-07T10:04:47.791Z,90.00
2022-08-07T10:07:53.782Z,89.30
2022-08-07T10:11:17.207Z,89.40
2022-08-07T10:14:00.484Z,89.10
2022-08-07T10:16:41.895Z,88.90
2022-08-07T10:19:40.511Z,88.70
2022-08-07T10:22:34.020Z,88.20
2022-08-07T10:25:20.836Z,88.30
2022-08-07T10:28:10.558Z,88.20
2022-08-07T10:31:00.085Z,88.10
2022-08-07T10:34:05.951Z,88.30
2022-08-07T10:37:03.910Z,88.20
2022-08-07T10:40:03.118Z,88.10
2022-08-07T10:42:39.176Z,87.10
2022-08-07T10:45:14.991Z,86.80
2022-08-07T10:48:22.206Z,86.40
2022-08-07T10:51:39.418Z,86.80
2022-08-07T10:54:39.059Z,85.80
2022-08-07T10:57:34.148Z,86.10
2022-08-07T11:00:36.166Z,85.50
2022-08-07T11:03:11.216Z,85.50
2022-08-07T11:05:54.767Z,85.50
2022-08-07T11:08:51.694Z,84.70
2022-08-07T11:11:41.779Z,84.60
2022-08-07T11:14:57.367Z,84.40
2022-08-07T11:17:43.431Z,84.40
2022-08-07T11:20:24.488Z,84.80
2022-08-07T11:23:09.563Z,85.00
2022-08-07T11:25:52.776Z,84.10
2022-08-07T11:28:26.466Z,83.60
2022-08-07T11:31:02.530Z,82.80
2022-08-07T11:33:59.212Z,82.80
2022-08-07T11:36:53.095Z,83.00
2022-08-07T11:40:00.221Z,83.10
2022-08-07T11:42:39.507Z,82.70
2022-08-07T11:45:35.804Z,83.40
2022-08-07T11:48:30.437Z,83.00
2022-08-07T11:51:09.627Z,83.60
2022-08-07T11:54:06.104Z,82.20
2022-08-07T11:56:58.528Z,82.00
2022-08-07T12:00:12.227Z,82.00
2022-08-07T12:02:52.662Z,81.20
2022-08-07T12:05:49.231Z,81.20
2022-08-07T12:08:34.604Z,79.30
2022-08-07T12:11:21.562Z,78.30
2022-08-07T12:13:57.744Z,78.30
2022-08-07T12:16:28.856Z,77.80
2022-08-07T12:19:35.687Z,78.00
2022-08-07T12:22:55.961Z,78.10
2022-08-07T12:26:05.988Z,74.60
2022-08-07T12:29:08.923Z,74.40
2022-08-07T12:31:53.291Z,74.40
2022-08-07T12:34:34.302Z,74.70
2022-08-07T12:37:02.067Z,74.10
2022-08-07T12:39:42.098Z,73.40
2022-08-07T12:42:13.164Z,73.60
2022-08-07T12:44:45.164Z,73.80
2022-08-07T12:47:21.931Z,72.90
2022-08-07T12:50:38.182Z,73.50
2022-08-07T12:53:18.032Z,73.70
2022-08-07T12:56:10.166Z,73.40
2022-08-07T12:58:43.918Z,72.60
2022-08-07T13:01:38.298Z,70.00
2022-08-07T13:04:49.089Z,72.10
2022-08-07T13:08:12.826Z,73.10
2022-08-07T13:10:59.319Z,73.40
2022-08-07T13:13:57.305Z,73.80
2022-08-07T13:16:31.466Z,73.50
2022-08-07T13:19:22.020Z,73.70
2022-08-07T13:22:19.795Z,73.50
2022-08-07T13:25:00.417Z,74.20
2022-08-07T13:28:11.616Z,74.70
2022-08-07T13:30:39.837Z,74.90
2022-08-07T13:34:30.446Z,75.00
2022-08-07T13:36:26.576Z,75.00
2022-08-07T13:39:13.026Z,75.30
2022-08-07T13:41:56.795Z,75.30
2022-08-07T13:44:34.674Z,75.30
2022-08-07T13:47:09.622Z,74.70
2022-08-07T13:50:34.934Z,74.00
2022-08-07T13:52:39.603Z,73.10
2022-08-07T13:55:25.701Z,70.60
2022-08-07T13:58:27.594Z,70.40
2022-08-07T14:01:08.849Z,70.80
2022-08-07T14:04:05.506Z,70.20
2022-08-07T14:06:38.975Z,70.30
2022-08-07T14:09:09.744Z,70.30
2022-08-07T14:12:00.070Z,70.30
2022-08-07T14:14:42.850Z,68.80
2022-08-07T14:18:12.501Z,68.50
2022-08-07T14:20:41.017Z,68.60
2022-08-07T14:23:31.340Z,68.00
2022-08-07T14:26:23.689Z,68.30
2022-08-07T14:29:04.421Z,68.00
2022-08-07T14:31:42.985Z,67.30
2022-08-07T14:34:23.588Z,67.20
2022-08-07T14:36:56.029Z,67.50
2022-08-07T14:40:17.301Z,67.80
2022-08-07T14:42:19.720Z,67.60
2022-08-07T14:44:59.780Z,67.40
2022-08-07T14:47:31.222Z,67.30
2022-08-07T14:50:05.015Z,67.40
2022-08-07T14:52:34.325Z,66.50
2022-08-07T14:55:02.612Z,66.00
2022-08-07T14:57:58.716Z,65.00
2022-08-07T15:00:30.379Z,64.60
2022-08-07T15:03:16.566Z,64.70
2022-08-07T15:05:54.837Z,65.10
2022-08-07T15:08:50.304Z,64.50
2022-08-07T15:11:52.862Z,64.60
2022-08-07T15:14:20.717Z,64.50
2022-08-07T15:16:54.626Z,64.20
2022-08-07T15:22:23.073Z,63.70
2022-08-07T15:25:13.345Z,64.00
2022-08-07T15:30:36.474Z,64.50
2022-08-07T15:36:13.764Z,64.70
2022-08-07T15:39:08.798Z,63.80
2022-08-07T15:44:52.143Z,62.70
2022-08-07T15:47:21.597Z,61.90
2022-08-07T15:53:08.980Z,61.80
2022-08-07T15:55:53.716Z,61.10
2022-08-07T15:58:34.983Z,61.70
2022-08-07T16:01:05.360Z,61.20
2022-08-07T16:03:46.250Z,61.30
2022-08-07T16:06:16.327Z,60.40
2022-08-07T16:08:46.307Z,61.00
2022-08-07T16:12:00.088Z,60.90
2022-08-07T16:14:33.290Z,60.10
2022-08-07T16:18:01.788Z,59.80
2022-08-07T16:20:39.676Z,59.40
2022-08-07T16:23:54.229Z,58.80
2022-08-07T16:26:30.834Z,58.10
2022-08-07T16:30:07.299Z,57.80
2022-08-07T16:32:34.885Z,57.20
2022-08-07T16:35:51.455Z,57.00
2022-08-07T16:39:00.576Z,57.00
2022-08-07T16:41:41.162Z,56.90
2022-08-07T16:44:47.354Z,56.60
2022-08-07T16:47:56.663Z,56.10
2022-08-07T16:50:39.144Z,55.40
2022-08-07T16:54:02.757Z,55.00
2022-08-07T16:56:38.987Z,54.70
2022-08-07T16:59:20.731Z,54.60
2022-08-07T17:02:52.943Z,54.50
2022-08-07T17:06:30.445Z,54.00
2022-08-07T17:09:09.722Z,53.30
2022-08-07T17:12:04.960Z,52.60
2022-08-07T17:15:15.666Z,52.10
2022-08-07T17:17:48.966Z,52.10
2022-08-07T17:20:31.873Z,51.90
2022-08-07T17:23:32.377Z,52.00
2022-08-07T17:26:24.292Z,51.40
2022-08-07T17:29:04.639Z,51.30
2022-08-07T17:32:02.656Z,51.50
2022-08-07T17:34:40.955Z,51.70
2022-08-07T17:38:05.715Z,51.20
2022-08-07T17:40:50.718Z,51.30
2022-08-07T17:44:02.775Z,51.80
2022-08-07T17:46:47.183Z,52.10
2022-08-07T17:49:44.492Z,51.80
2022-08-07T17:52:39.744Z,52.00
2022-08-07T17:56:00.248Z,52.10
2022-08-07T17:58:53.082Z,52.60
2022-08-07T18:01:37.362Z,52.50
2022-08-07T18:04:30.853Z,52.50
2022-08-07T18:07:20.966Z,52.20
2022-08-07T18:10:07.325Z,52.10
2022-08-07T18:13:11.046Z,52.10
2022-08-07T18:16:03.291Z,52.00
2022-08-07T18:21:01.457Z,52.40
2022-08-07T18:22:03.557Z,52.70
2022-08-07T18:24:40.628Z,53.10
2022-08-07T18:27:18.209Z,53.40
2022-08-07T18:30:07.773Z,53.90
2022-08-07T18:33:15.101Z,54.50
2022-08-07T18:36:32.894Z,54.90
2022-08-07T18:40:08.524Z,55.40
2022-08-07T18:42:12.944Z,55.60
2022-08-07T18:48:02.794Z,56.10
2022-08-07T18:50:48.381Z,56.50
2022-08-07T18:53:42.183Z,56.80
2022-08-07T18:56:33.718Z,57.10
2022-08-07T18:59:46.987Z,57.30
2022-08-07T19:02:39.481Z,58.20
2022-08-07T19:06:02.503Z,57.90
2022-08-07T19:08:22.709Z,58.00
2022-08-07T19:10:56.271Z,58.10
2022-08-07T19:13:37.349Z,58.20
2022-08-07T19:17:01.526Z,58.30
2022-08-07T19:19:32.078Z,58.50
2022-08-07T19:22:07.316Z,58.50
2022-08-07T19:24:46.074Z,58.60
2022-08-07T19:28:29.621Z,58.70
2022-08-07T19:31:06.290Z,58.80
2022-08-07T19:33:03.310Z,59.00
2022-08-07T19:35:40.552Z,59.00
2022-08-07T19:38:16.975Z,59.30
2022-08-07T19:40:50.086Z,59.70
2022-08-07T19:43:45.129Z,59.90
2022-08-07T19:46:16.151Z,60.00
2022-08-07T19:48:53.776Z,60.20
2022-08-07T19:51:50.465Z,60.40
2022-08-07T19:54:33.986Z,60.50
2022-08-07T19:58:00.841Z,60.80
2022-08-07T19:59:54.409Z,61.00
2022-08-07T20:02:53.268Z,61.40
2022-08-07T20:05:28.708Z,61.40
2022-08-07T20:08:01.177Z,61.50
2022-08-07T20:10:54.472Z,61.70
2022-08-07T20:13:50.067Z,62.00
2022-08-07T20:16:36.422Z,62.00
2022-08-07T20:19:10.183Z,62.00
2022-08-07T20:21:42.186Z,62.10
2022-08-07T20:24:22.382Z,62.20
2022-08-07T20:26:52.295Z,62.40
2022-08-07T20:29:58.290Z,62.50
2022-08-07T20:32:38.948Z,62.50
2022-08-07T20:35:16.300Z,62.60
2022-08-07T20:37:57.811Z,62.90
2022-08-07T20:40:31.358Z,63.20
2022-08-07T20:43:02.003Z,63.50
2022-08-07T20:46:27.190Z,63.80
2022-08-07T20:48:29.862Z,64.10
2022-08-07T20:51:00.361Z,64.50
2022-08-07T20:54:04.653Z,64.90
2022-08-07T20:56:16.259Z,65.00
2022-08-07T20:58:47.971Z,65.30
2022-08-07T21:01:20.046Z,65.40
2022-08-07T21:04:13.080Z,65.60
2022-08-07T21:06:39.248Z,65.60
2022-08-07T21:09:17.299Z,65.90
2022-08-07T21:11:55.659Z,65.90
2022-08-07T21:14:34.503Z,65.90
2022-08-07T21:18:05.902Z,66.10
2022-08-07T21:20:04.951Z,65.90
2022-08-07T21:22:51.302Z,66.00
2022-08-07T21:25:52.252Z,66.20
2022-08-07T21:28:49.556Z,66.40
2022-08-07T21:31:49.932Z,66.40
2022-08-07T21:34:32.707Z,66.70
2022-08-07T21:37:21.644Z,66.80
2022-08-07T21:40:35.959Z,67.00
2022-08-07T21:43:10.739Z,67.10
2022-08-07T21:46:08.050Z,67.20
2022-08-07T21:48:56.673Z,67.50
2022-08-07T21:51:51.304Z,67.60
2022-08-07T21:54:45.975Z,67.80
2022-08-07T21:57:52.280Z,67.70
2022-08-07T22:00:24.798Z,68.00
2022-08-07T22:03:00.493Z,68.30
2022-08-07T22:05:44.230Z,68.40
2022-08-07T22:08:18.860Z,68.40
2022-08-07T22:10:58.112Z,68.60
2022-08-07T22:13:52.648Z,68.70
2022-08-07T22:16:42.597Z,69.00
2022-08-07T22:19:30.207Z,69.20
2022-08-07T22:22:21.253Z,69.40
2022-08-07T22:25:12.257Z,69.50
2022-08-07T22:28:07.990Z,69.60
2022-08-07T22:30:42.891Z,69.90
2022-08-07T22:33:52.632Z,70.10
2022-08-07T22:36:29.215Z,70.70
2022-08-07T22:39:04.502Z,71.00
2022-08-07T22:42:03.135Z,71.60
2022-08-07T22:44:33.068Z,71.80
2022-08-07T22:47:39.622Z,72.00
2022-08-07T22:50:43.553Z,72.50
2022-08-07T22:53:15.962Z,73.00
2022-08-07T22:55:48.351Z,73.30
2022-08-07T22:58:15.200Z,73.60
2022-08-07T23:01:06.266Z,73.80
2022-08-07T23:04:00.355Z,74.00
2022-08-07T23:06:51.886Z,74.00
2022-08-07T23:10:03.810Z,74.20
2022-08-07T23:12:54.399Z,74.30
2022-08-07T23:16:06.646Z,74.40
2022-08-07T23:18:25.945Z,74.50
2022-08-07T23:21:17.267Z,74.60
2022-08-07T23:24:17.019Z,74.70
2022-08-07T23:27:33.868Z,74.60
2022-08-07T23:30:39.213Z,74.70
2022-08-07T23:34:34.454Z,74.80
2022-08-07T23:37:19.301Z,74.60
2022-08-07T23:40:12.264Z,74.70
2022-08-07T23:43:16.656Z,74.90
2022-08-07T23:46:11.017Z,75.00
2022-08-07T23:49:03.691Z,75.20
2022-08-07T23:52:59.666Z,75.30
2022-08-07T23:54:46.132Z,75.60
2022-08-07T23:57:34.712Z,75.70
